sensor_id;sensor_type;location;lat;lon;timestamp;pressure;altitude;pressure_sealevel;temperature;humidity
65227;BME280;51805;49.012;12.104;2023-01-28T00:00:06;98257.31;;;22.25;45.50
65227;BME280;51805;49.012;12.104;2023-01-28T00:02:32;98262.72;;;22.25;45.47
65227;BME280;51805;49.012;12.104;2023-01-28T00:04:57;98260.56;;;22.22;45.34
65227;BME280;51805;49.012;12.104;2023-01-28T00:07:23;98264.31;;;22.21;45.53
65227;BME280;51805;49.012;12.104;2023-01-28T00:09:48;98258.38;;;22.19;45.54
65227;BME280;51805;49.012;12.104;2023-01-28T00:12:13;98254.31;;;22.17;45.57
65227;BME280;51805;49.012;12.104;2023-01-28T00:14:38;98258.91;;;22.21;45.41
65227;BME280;51805;49.012;12.104;2023-01-28T00:17:04;98260.00;;;22.20;45.33
65227;BME280;51805;49.012;12.104;2023-01-28T00:19:29;98262.16;;;22.18;45.47
65227;BME280;51805;49.012;12.104;2023-01-28T00:21:54;98263.78;;;22.19;45.43
65227;BME280;51805;49.012;12.104;2023-01-28T00:24:19;98257.28;;;22.15;45.44
65227;BME280;51805;49.012;12.104;2023-01-28T00:26:44;98262.13;;;22.13;45.45
65227;BME280;51805;49.012;12.104;2023-01-28T00:29:10;98259.16;;;22.15;45.52
65227;BME280;51805;49.012;12.104;2023-01-28T00:31:35;98261.34;;;22.13;45.54
65227;BME280;51805;49.012;12.104;2023-01-28T00:34:00;98264.84;;;22.13;45.41
65227;BME280;51805;49.012;12.104;2023-01-28T00:36:25;98270.81;;;22.15;45.41
65227;BME280;51805;49.012;12.104;2023-01-28T00:38:54;98262.69;;;22.10;45.46
65227;BME280;51805;49.012;12.104;2023-01-28T00:41:21;98274.59;;;22.09;45.53
65227;BME280;51805;49.012;12.104;2023-01-28T00:43:47;98272.44;;;22.06;45.46
65227;BME280;51805;49.012;12.104;2023-01-28T00:46:12;98270.28;;;22.08;45.53
65227;BME280;51805;49.012;12.104;2023-01-28T00:48:38;98270.00;;;22.05;45.51
65227;BME280;51805;49.012;12.104;2023-01-28T00:51:04;98262.41;;;22.02;45.69
65227;BME280;51805;49.012;12.104;2023-01-28T00:53:29;98268.09;;;22.05;45.54
65227;BME280;51805;49.012;12.104;2023-01-28T00:55:54;98269.69;;;22.01;45.36
65227;BME280;51805;49.012;12.104;2023-01-28T00:58:20;98261.59;;;22.01;45.51
65227;BME280;51805;49.012;12.104;2023-01-28T01:00:45;98273.78;;;21.99;45.50
65227;BME280;51805;49.012;12.104;2023-01-28T01:03:10;98276.22;;;22.00;45.46
65227;BME280;51805;49.012;12.104;2023-01-28T01:05:35;98269.69;;;21.96;45.67
65227;BME280;51805;49.012;12.104;2023-01-28T01:08:00;98274.31;;;21.96;45.71
65227;BME280;51805;49.012;12.104;2023-01-28T01:10:25;98278.91;;;21.95;45.66
65227;BME280;51805;49.012;12.104;2023-01-28T01:12:50;98278.63;;;21.97;45.53
65227;BME280;51805;49.012;12.104;2023-01-28T01:15:16;98272.94;;;21.93;45.63
65227;BME280;51805;49.012;12.104;2023-01-28T01:17:43;98274.03;;;21.92;45.54
65227;BME280;51805;49.012;12.104;2023-01-28T01:20:13;98272.66;;;21.95;45.44
65227;BME280;51805;49.012;12.104;2023-01-28T01:22:38;98270.50;;;21.92;45.46
65227;BME280;51805;49.012;12.104;2023-01-28T01:25:04;98277.81;;;21.91;45.72
65227;BME280;51805;49.012;12.104;2023-01-28T01:27:29;98275.09;;;21.86;45.82
65227;BME280;51805;49.012;12.104;2023-01-28T01:29:55;98275.38;;;21.85;45.60
65227;BME280;51805;49.012;12.104;2023-01-28T01:32:20;98278.06;;;21.85;45.65
65227;BME280;51805;49.012;12.104;2023-01-28T01:34:45;98280.50;;;21.86;45.65
65227;BME280;51805;49.012;12.104;2023-01-28T01:37:10;98287.53;;;21.87;45.67
65227;BME280;51805;49.012;12.104;2023-01-28T01:39:35;98264.22;;;21.76;45.68
65227;BME280;51805;49.012;12.104;2023-01-28T01:42:01;98282.13;;;21.82;45.76
65227;BME280;51805;49.012;12.104;2023-01-28T01:47:10;98291.31;;;21.81;45.66
65227;BME280;51805;49.012;12.104;2023-01-28T01:49:35;98290.25;;;21.82;45.58
65227;BME280;51805;49.012;12.104;2023-01-28T01:52:02;98291.03;;;21.83;45.51
65227;BME280;51805;49.012;12.104;2023-01-28T01:54:31;98289.44;;;21.82;45.68
65227;BME280;51805;49.012;12.104;2023-01-28T01:56:57;98296.19;;;21.79;45.75
65227;BME280;51805;49.012;12.104;2023-01-28T01:59:24;98289.41;;;21.77;45.83
65227;BME280;51805;49.012;12.104;2023-01-28T02:01:51;98295.09;;;21.75;45.56
65227;BME280;51805;49.012;12.104;2023-01-28T02:04:18;98294.50;;;21.73;45.81
65227;BME280;51805;49.012;12.104;2023-01-28T02:06:44;98297.47;;;21.72;45.84
65227;BME280;51805;49.012;12.104;2023-01-28T02:09:28;98294.75;;;21.72;45.83
65227;BME280;51805;49.012;12.104;2023-01-28T02:11:55;98297.19;;;21.73;45.77
65227;BME280;51805;49.012;12.104;2023-01-28T02:14:23;98300.16;;;21.72;45.78
65227;BME280;51805;49.012;12.104;2023-01-28T02:16:50;98296.38;;;21.68;45.68
65227;BME280;51805;49.012;12.104;2023-01-28T02:19:15;98301.78;;;21.68;45.77
65227;BME280;51805;49.012;12.104;2023-01-28T02:24:23;98296.09;;;21.64;45.80
65227;BME280;51805;49.012;12.104;2023-01-28T02:26:57;98292.84;;;21.62;45.77
65227;BME280;51805;49.012;12.104;2023-01-28T02:29:40;98311.78;;;21.62;45.77
65227;BME280;51805;49.012;12.104;2023-01-28T02:32:09;98299.59;;;21.60;45.83
65227;BME280;51805;49.012;12.104;2023-01-28T02:34:42;98316.09;;;21.58;45.91
65227;BME280;51805;49.012;12.104;2023-01-28T02:37:26;98312.03;;;21.56;46.02
65227;BME280;51805;49.012;12.104;2023-01-28T02:39:55;98311.22;;;21.55;45.88
65227;BME280;51805;49.012;12.104;2023-01-28T02:42:31;98320.16;;;21.56;45.91
65227;BME280;51805;49.012;12.104;2023-01-28T02:44:56;98318.75;;;21.53;45.95
65227;BME280;51805;49.012;12.104;2023-01-28T02:47:21;98315.25;;;21.53;46.11
65227;BME280;51805;49.012;12.104;2023-01-28T02:49:50;98315.53;;;21.51;46.07
65227;BME280;51805;49.012;12.104;2023-01-28T02:54:55;98323.91;;;21.50;45.99
65227;BME280;51805;49.012;12.104;2023-01-28T02:57:39;98329.56;;;21.48;45.99
65227;BME280;51805;49.012;12.104;2023-01-28T03:03:01;98320.34;;;21.44;46.04
65227;BME280;51805;49.012;12.104;2023-01-28T03:05:30;98323.06;;;21.44;46.14
65227;BME280;51805;49.012;12.104;2023-01-28T03:07:59;98318.72;;;21.43;46.10
65227;BME280;51805;49.012;12.104;2023-01-28T03:10:25;98315.47;;;21.41;46.13
65227;BME280;51805;49.012;12.104;2023-01-28T03:12:52;98320.88;;;21.41;46.09
65227;BME280;51805;49.012;12.104;2023-01-28T03:15:22;98320.09;;;21.40;46.17
65227;BME280;51805;49.012;12.104;2023-01-28T03:17:50;98320.88;;;21.41;46.01
65227;BME280;51805;49.012;12.104;2023-01-28T03:20:17;98316.81;;;21.38;46.06
65227;BME280;51805;49.012;12.104;2023-01-28T03:22:45;98321.41;;;21.38;46.16
65227;BME280;51805;49.012;12.104;2023-01-28T03:25:11;98323.06;;;21.39;46.02
65227;BME280;51805;49.012;12.104;2023-01-28T03:27:41;98317.91;;;21.37;46.06
65227;BME280;51805;49.012;12.104;2023-01-28T03:30:12;98321.94;;;21.35;46.05
65227;BME280;51805;49.012;12.104;2023-01-28T03:32:39;98331.13;;;21.34;46.06
65227;BME280;51805;49.012;12.104;2023-01-28T03:35:04;98325.72;;;21.34;45.96
65227;BME280;51805;49.012;12.104;2023-01-28T03:37:31;98327.84;;;21.32;46.00
65227;BME280;51805;49.012;12.104;2023-01-28T03:40:00;98332.44;;;21.31;46.13
65227;BME280;51805;49.012;12.104;2023-01-28T03:42:25;98340.03;;;21.29;46.21
65227;BME280;51805;49.012;12.104;2023-01-28T03:44:50;98329.47;;;21.28;46.27
65227;BME280;51805;49.012;12.104;2023-01-28T03:47:15;98332.44;;;21.26;46.29
65227;BME280;51805;49.012;12.104;2023-01-28T03:49:41;98338.09;;;21.25;46.58
65227;BME280;51805;49.012;12.104;2023-01-28T03:52:07;98338.91;;;21.25;46.63
65227;BME280;51805;49.012;12.104;2023-01-28T03:54:32;98338.09;;;21.25;46.55
65227;BME280;51805;49.012;12.104;2023-01-28T03:56:57;98347.00;;;21.25;46.58
65227;BME280;51805;49.012;12.104;2023-01-28T03:59:22;98346.75;;;21.22;46.70
65227;BME280;51805;49.012;12.104;2023-01-28T04:01:48;98342.38;;;21.21;46.61
65227;BME280;51805;49.012;12.104;2023-01-28T04:04:13;98340.50;;;21.21;46.86
65227;BME280;51805;49.012;12.104;2023-01-28T04:06:38;98340.78;;;21.20;46.82
65227;BME280;51805;49.012;12.104;2023-01-28T04:09:03;98336.44;;;21.19;46.75
65227;BME280;51805;49.012;12.104;2023-01-28T04:11:28;98333.19;;;21.17;46.90
65227;BME280;51805;49.012;12.104;2023-01-28T04:13:56;98344.81;;;21.17;46.82
65227;BME280;51805;49.012;12.104;2023-01-28T04:16:21;98340.72;;;21.15;46.92
65227;BME280;51805;49.012;12.104;2023-01-28T04:18:49;98341.81;;;21.14;46.97
65227;BME280;51805;49.012;12.104;2023-01-28T04:21:14;98346.13;;;21.15;47.14
65227;BME280;51805;49.012;12.104;2023-01-28T04:23:39;98347.22;;;21.14;46.96
65227;BME280;51805;49.012;12.104;2023-01-28T04:26:04;98351.81;;;21.13;46.89
65227;BME280;51805;49.012;12.104;2023-01-28T04:28:30;98352.06;;;21.12;47.14
65227;BME280;51805;49.012;12.104;2023-01-28T04:30:55;98355.84;;;21.11;47.22
65227;BME280;51805;49.012;12.104;2023-01-28T04:33:20;98366.09;;;21.09;47.13
65227;BME280;51805;49.012;12.104;2023-01-28T04:35:45;98361.78;;;21.08;47.20
65227;BME280;51805;49.012;12.104;2023-01-28T04:38:12;98365.28;;;21.08;47.34
65227;BME280;51805;49.012;12.104;2023-01-28T04:40:37;98366.09;;;21.09;47.30
65227;BME280;51805;49.012;12.104;2023-01-28T04:43:02;98368.25;;;21.07;47.27
65227;BME280;51805;49.012;12.104;2023-01-28T04:45:27;98362.84;;;21.07;47.32
65227;BME280;51805;49.012;12.104;2023-01-28T04:47:52;98368.75;;;21.04;47.26
65227;BME280;51805;49.012;12.104;2023-01-28T04:50:17;98361.75;;;21.03;47.42
65227;BME280;51805;49.012;12.104;2023-01-28T04:52:42;98361.75;;;21.03;47.32
65227;BME280;51805;49.012;12.104;2023-01-28T04:55:08;98367.13;;;21.03;47.23
65227;BME280;51805;49.012;12.104;2023-01-28T04:57:33;98367.13;;;21.03;47.50
65227;BME280;51805;49.012;12.104;2023-01-28T04:59:59;98371.19;;;21.00;47.34
65227;BME280;51805;49.012;12.104;2023-01-28T05:02:24;98370.38;;;21.00;47.41
65227;BME280;51805;49.012;12.104;2023-01-28T05:04:49;98366.84;;;20.99;47.41
65227;BME280;51805;49.012;12.104;2023-01-28T05:07:14;98368.75;;;20.99;47.58
65227;BME280;51805;49.012;12.104;2023-01-28T05:09:39;98363.34;;;20.99;47.55
65227;BME280;51805;49.012;12.104;2023-01-28T05:12:04;98368.19;;;20.97;47.75
65227;BME280;51805;49.012;12.104;2023-01-28T05:14:30;98368.19;;;20.97;47.58
65227;BME280;51805;49.012;12.104;2023-01-28T05:16:55;98367.34;;;20.96;47.62
65227;BME280;51805;49.012;12.104;2023-01-28T05:19:20;98366.56;;;20.96;47.68
65227;BME280;51805;49.012;12.104;2023-01-28T05:21:45;98364.88;;;20.95;47.76
65227;BME280;51805;49.012;12.104;2023-01-28T05:24:10;98371.16;;;20.95;47.78
65227;BME280;51805;49.012;12.104;2023-01-28T05:26:35;98375.69;;;20.95;47.78
65227;BME280;51805;49.012;12.104;2023-01-28T05:29:00;98373.00;;;20.95;47.77
65227;BME280;51805;49.012;12.104;2023-01-28T05:31:25;98371.97;;;20.96;47.76
65227;BME280;51805;49.012;12.104;2023-01-28T05:33:51;98368.19;;;20.97;47.78
65227;BME280;51805;49.012;12.104;2023-01-28T05:36:16;98371.72;;;20.97;47.86
65227;BME280;51805;49.012;12.104;2023-01-28T05:38:41;98364.66;;;20.96;47.76
65227;BME280;51805;49.012;12.104;2023-01-28T05:41:06;98372.50;;;20.98;47.78
65227;BME280;51805;49.012;12.104;2023-01-28T05:43:31;98364.13;;;20.99;47.53
65227;BME280;51805;49.012;12.104;2023-01-28T05:45:56;98374.69;;;21.01;47.69
65227;BME280;51805;49.012;12.104;2023-01-28T05:48:21;98365.53;;;21.02;47.63
65227;BME280;51805;49.012;12.104;2023-01-28T05:50:46;98375.81;;;21.05;47.49
65227;BME280;51805;49.012;12.104;2023-01-28T05:53:12;98369.88;;;21.08;47.59
65227;BME280;51805;49.012;12.104;2023-01-28T05:55:37;98369.88;;;21.08;47.42
65227;BME280;51805;49.012;12.104;2023-01-28T05:58:02;98376.91;;;21.09;47.49
65227;BME280;51805;49.012;12.104;2023-01-28T06:00:27;98376.91;;;21.09;47.29
65227;BME280;51805;49.012;12.104;2023-01-28T06:02:52;98378.53;;;21.10;47.31
65227;BME280;51805;49.012;12.104;2023-01-28T06:05:18;98376.38;;;21.12;47.35
65227;BME280;51805;49.012;12.104;2023-01-28T06:07:44;98379.91;;;21.12;47.55
65227;BME280;51805;49.012;12.104;2023-01-28T06:10:09;98379.97;;;21.17;47.32
65227;BME280;51805;49.012;12.104;2023-01-28T06:12:34;98384.03;;;21.20;47.13
65227;BME280;51805;49.012;12.104;2023-01-28T06:14:59;98394.00;;;21.19;47.16
65227;BME280;51805;49.012;12.104;2023-01-28T06:17:24;98396.44;;;21.21;47.40
65227;BME280;51805;49.012;12.104;2023-01-28T06:19:49;98391.03;;;21.21;47.17
65227;BME280;51805;49.012;12.104;2023-01-28T06:22:15;98407.31;;;21.26;47.04
65227;BME280;51805;49.012;12.104;2023-01-28T06:24:40;98405.44;;;21.26;46.95
65227;BME280;51805;49.012;12.104;2023-01-28T06:27:05;98420.03;;;21.30;46.94
65227;BME280;51805;49.012;12.104;2023-01-28T06:29:30;98418.69;;;21.33;46.88
65227;BME280;51805;49.012;12.104;2023-01-28T06:31:55;98422.22;;;21.33;46.82
65227;BME280;51805;49.012;12.104;2023-01-28T06:34:20;98414.09;;;21.33;46.90
65227;BME280;51805;49.012;12.104;2023-01-28T06:36:45;98423.34;;;21.37;46.75
65227;BME280;51805;49.012;12.104;2023-01-28T06:39:10;98423.34;;;21.37;46.58
65227;BME280;51805;49.012;12.104;2023-01-28T06:41:35;98423.09;;;21.44;46.58
65227;BME280;51805;49.012;12.104;2023-01-28T06:44:01;98428.25;;;21.45;46.54
65227;BME280;51805;49.012;12.104;2023-01-28T06:46:26;98436.66;;;21.49;46.36
65227;BME280;51805;49.012;12.104;2023-01-28T06:48:51;98435.84;;;21.48;46.67
65227;BME280;51805;49.012;12.104;2023-01-28T06:51:16;98444.50;;;21.51;46.48
65227;BME280;51805;49.012;12.104;2023-01-28T06:53:41;98445.34;;;21.51;46.34
65227;BME280;51805;49.012;12.104;2023-01-28T06:56:06;98443.41;;;21.52;46.25
65227;BME280;51805;49.012;12.104;2023-01-28T06:58:32;98451.00;;;21.55;46.31
65227;BME280;51805;49.012;12.104;2023-01-28T07:00:57;98443.16;;;21.53;46.48
65227;BME280;51805;49.012;12.104;2023-01-28T07:03:22;98448.03;;;21.56;46.44
65227;BME280;51805;49.012;12.104;2023-01-28T07:05:47;98451.31;;;21.58;46.38
65227;BME280;51805;49.012;12.104;2023-01-28T07:08:12;98459.16;;;21.60;46.32
65227;BME280;51805;49.012;12.104;2023-01-28T07:10:37;98458.91;;;21.61;46.36
65227;BME280;51805;49.012;12.104;2023-01-28T07:13:02;98465.97;;;21.67;45.89
65227;BME280;51805;49.012;12.104;2023-01-28T07:15:27;98454.28;;;21.57;46.17
65227;BME280;51805;49.012;12.104;2023-01-28T07:17:53;98466.50;;;21.64;46.13
65227;BME280;51805;49.012;12.104;2023-01-28T07:20:18;98477.34;;;21.69;46.13
65227;BME280;51805;49.012;12.104;2023-01-28T07:22:43;98477.91;;;21.71;46.03
65227;BME280;51805;49.012;12.104;2023-01-28T07:25:09;98482.81;;;21.74;46.04
65227;BME280;51805;49.012;12.104;2023-01-28T07:27:35;98477.97;;;21.76;45.95
65227;BME280;51805;49.012;12.104;2023-01-28T07:30:00;98481.16;;;21.73;45.87
65227;BME280;51805;49.012;12.104;2023-01-28T07:32:25;98487.16;;;21.75;46.07
65227;BME280;51805;49.012;12.104;2023-01-28T07:34:50;98479.88;;;21.76;45.81
65227;BME280;51805;49.012;12.104;2023-01-28T07:37:16;98482.06;;;21.79;45.72
65227;BME280;51805;49.012;12.104;2023-01-28T07:39:41;98467.16;;;21.81;45.86
65227;BME280;51805;49.012;12.104;2023-01-28T07:42:06;98480.44;;;21.83;45.75
65227;BME280;51805;49.012;12.104;2023-01-28T07:44:31;98469.34;;;21.84;45.70
65227;BME280;51805;49.012;12.104;2023-01-28T07:46:56;98477.47;;;21.84;45.78
65227;BME280;51805;49.012;12.104;2023-01-28T07:49:23;98480.19;;;21.84;45.64
65227;BME280;51805;49.012;12.104;2023-01-28T07:51:49;98482.88;;;21.84;45.59
65227;BME280;51805;49.012;12.104;2023-01-28T07:54:14;98479.66;;;21.87;45.80
65227;BME280;51805;49.012;12.104;2023-01-28T07:56:39;98485.63;;;21.89;45.70
65227;BME280;51805;49.012;12.104;2023-01-28T07:59:04;98485.09;;;21.92;45.53
65227;BME280;51805;49.012;12.104;2023-01-28T08:01:29;98493.47;;;21.91;45.61
65227;BME280;51805;49.012;12.104;2023-01-28T08:03:54;98498.06;;;21.90;45.55
65227;BME280;51805;49.012;12.104;2023-01-28T08:06:19;98495.09;;;21.92;45.56
65227;BME280;51805;49.012;12.104;2023-01-28T08:08:46;98499.19;;;21.94;45.50
65227;BME280;51805;49.012;12.104;2023-01-28T08:11:11;98511.63;;;21.95;45.51
65227;BME280;51805;49.012;12.104;2023-01-28T08:13:36;98515.44;;;21.94;45.72
65227;BME280;51805;49.012;12.104;2023-01-28T08:16:01;98510.53;;;21.96;45.51
65227;BME280;51805;49.012;12.104;2023-01-28T08:18:26;98506.78;;;21.97;45.34
65227;BME280;51805;49.012;12.104;2023-01-28T08:20:55;98513.25;;;21.96;45.49
65227;BME280;51805;49.012;12.104;2023-01-28T08:23:20;98505.69;;;21.98;45.61
65227;BME280;51805;49.012;12.104;2023-01-28T08:25:45;98509.22;;;21.99;45.51
65227;BME280;51805;49.012;12.104;2023-01-28T08:28:11;98507.88;;;22.01;45.57
65227;BME280;51805;49.012;12.104;2023-01-28T08:30:37;98515.47;;;22.04;45.48
65227;BME280;51805;49.012;12.104;2023-01-28T08:33:02;98513.28;;;22.01;45.40
65227;BME280;51805;49.012;12.104;2023-01-28T08:35:27;98521.66;;;22.00;45.50
65227;BME280;51805;49.012;12.104;2023-01-28T08:37:53;98512.75;;;22.04;45.37
65227;BME280;51805;49.012;12.104;2023-01-28T08:40:18;98519.81;;;22.05;45.54
65227;BME280;51805;49.012;12.104;2023-01-28T08:42:47;98522.00;;;22.08;45.44
65227;BME280;51805;49.012;12.104;2023-01-28T08:45:12;98525.78;;;22.07;45.46
65227;BME280;51805;49.012;12.104;2023-01-28T08:47:46;98522.81;;;22.09;45.32
65227;BME280;51805;49.012;12.104;2023-01-28T08:50:11;98516.59;;;22.08;45.42
65227;BME280;51805;49.012;12.104;2023-01-28T08:52:36;98516.59;;;22.08;45.34
65227;BME280;51805;49.012;12.104;2023-01-28T08:55:01;98513.63;;;22.10;45.34
65227;BME280;51805;49.012;12.104;2023-01-28T08:57:26;98515.81;;;22.13;45.26
65227;BME280;51805;49.012;12.104;2023-01-28T08:59:51;98516.06;;;22.11;45.31
65227;BME280;51805;49.012;12.104;2023-01-28T09:02:16;98514.97;;;22.12;45.36
65227;BME280;51805;49.012;12.104;2023-01-28T09:04:41;98518.78;;;22.11;45.27
65227;BME280;51805;49.012;12.104;2023-01-28T09:07:07;98514.97;;;22.12;45.45
65227;BME280;51805;49.012;12.104;2023-01-28T09:09:32;98516.59;;;22.13;45.27
65227;BME280;51805;49.012;12.104;2023-01-28T09:11:57;98514.72;;;22.14;45.42
65227;BME280;51805;49.012;12.104;2023-01-28T09:14:22;98525.81;;;22.12;45.28
65227;BME280;51805;49.012;12.104;2023-01-28T09:16:47;98518.78;;;22.16;45.38
65227;BME280;51805;49.012;12.104;2023-01-28T09:19:12;98517.44;;;22.19;45.34
65227;BME280;51805;49.012;12.104;2023-01-28T09:21:38;98528.53;;;22.17;45.45
65227;BME280;51805;49.012;12.104;2023-01-28T09:24:03;98526.09;;;22.16;45.41
65227;BME280;51805;49.012;12.104;2023-01-28T09:26:28;98529.59;;;22.16;45.25
65227;BME280;51805;49.012;12.104;2023-01-28T09:28:53;98535.06;;;22.21;45.25
65227;BME280;51805;49.012;12.104;2023-01-28T09:31:19;98536.97;;;22.21;45.22
65227;BME280;51805;49.012;12.104;2023-01-28T09:33:46;98536.13;;;22.20;45.37
65227;BME280;51805;49.012;12.104;2023-01-28T09:36:11;98537.22;;;22.19;45.37
65227;BME280;51805;49.012;12.104;2023-01-28T09:38:36;98542.66;;;22.19;45.29
65227;BME280;51805;49.012;12.104;2023-01-28T09:41:01;98545.09;;;22.21;45.16
65227;BME280;51805;49.012;12.104;2023-01-28T09:46:12;98548.31;;;22.23;45.36
65227;BME280;51805;49.012;12.104;2023-01-28T09:48:50;98541.03;;;22.23;45.25
65227;BME280;51805;49.012;12.104;2023-01-28T09:53:47;98540.50;;;22.26;45.13
65227;BME280;51805;49.012;12.104;2023-01-28T09:56:18;98542.13;;;22.27;45.23
65227;BME280;51805;49.012;12.104;2023-01-28T09:58:46;98539.16;;;22.29;45.12
65227;BME280;51805;49.012;12.104;2023-01-28T10:04:00;98534.56;;;22.29;45.27
65227;BME280;51805;49.012;12.104;2023-01-28T10:06:40;98543.78;;;22.28;45.27
65227;BME280;51805;49.012;12.104;2023-01-28T10:09:27;98538.09;;;22.30;45.25
65227;BME280;51805;49.012;12.104;2023-01-28T10:16:59;98543.25;;;22.36;45.08
65227;BME280;51805;49.012;12.104;2023-01-28T10:19:33;98541.34;;;22.37;45.11
65227;BME280;51805;49.012;12.104;2023-01-28T10:22:22;98545.94;;;22.36;45.29
65227;BME280;51805;49.012;12.104;2023-01-28T10:24:55;98542.44;;;22.36;45.02
65227;BME280;51805;49.012;12.104;2023-01-28T10:27:22;98542.97;;;22.38;45.13
65227;BME280;51805;49.012;12.104;2023-01-28T10:29:48;98549.22;;;22.38;44.98
65227;BME280;51805;49.012;12.104;2023-01-28T10:34:48;98548.16;;;22.39;45.11
65227;BME280;51805;49.012;12.104;2023-01-28T10:37:14;98550.03;;;22.39;45.08
65227;BME280;51805;49.012;12.104;2023-01-28T10:39:40;98545.44;;;22.39;45.09
65227;BME280;51805;49.012;12.104;2023-01-28T10:44:49;98555.19;;;22.40;45.06
65227;BME280;51805;49.012;12.104;2023-01-28T10:47:16;98547.38;;;22.44;44.85
65227;BME280;51805;49.012;12.104;2023-01-28T10:49:45;98544.91;;;22.42;45.02
65227;BME280;51805;49.012;12.104;2023-01-28T10:52:12;98543.84;;;22.43;44.90
65227;BME280;51805;49.012;12.104;2023-01-28T10:54:37;98543.28;;;22.41;44.92
65227;BME280;51805;49.012;12.104;2023-01-28T10:57:03;98544.91;;;22.42;44.96
65227;BME280;51805;49.012;12.104;2023-01-28T10:59:30;98547.63;;;22.47;44.95
65227;BME280;51805;49.012;12.104;2023-01-28T11:01:57;98540.03;;;22.44;44.87
65227;BME280;51805;49.012;12.104;2023-01-28T11:04:24;98540.59;;;22.46;44.85
65227;BME280;51805;49.012;12.104;2023-01-28T11:06:50;98538.44;;;22.48;44.88
65227;BME280;51805;49.012;12.104;2023-01-28T11:09:20;98532.19;;;22.48;44.94
65227;BME280;51805;49.012;12.104;2023-01-28T11:11:45;98534.09;;;22.47;44.94
65227;BME280;51805;49.012;12.104;2023-01-28T11:14:18;98535.19;;;22.46;44.94
65227;BME280;51805;49.012;12.104;2023-01-28T11:16:43;98533.28;;;22.47;44.93
65227;BME280;51805;49.012;12.104;2023-01-28T11:19:09;98534.09;;;22.47;44.77
65227;BME280;51805;49.012;12.104;2023-01-28T11:21:35;98534.66;;;22.49;44.84
65227;BME280;51805;49.012;12.104;2023-01-28T11:24:01;98539.50;;;22.47;44.94
65227;BME280;51805;49.012;12.104;2023-01-28T11:26:35;98541.16;;;22.48;44.79
65227;BME280;51805;49.012;12.104;2023-01-28T11:29:00;98541.16;;;22.48;44.99
65227;BME280;51805;49.012;12.104;2023-01-28T11:31:26;98544.91;;;22.47;44.95
65227;BME280;51805;49.012;12.104;2023-01-28T11:36:21;98542.53;;;22.51;44.90
65227;BME280;51805;49.012;12.104;2023-01-28T11:38:56;98539.56;;;22.52;44.70
65227;BME280;51805;49.012;12.104;2023-01-28T11:41:32;98536.59;;;22.54;44.74
65227;BME280;51805;49.012;12.104;2023-01-28T11:43:58;98541.19;;;22.53;44.77
65227;BME280;51805;49.012;12.104;2023-01-28T11:46:31;98538.19;;;22.55;44.79
65227;BME280;51805;49.012;12.104;2023-01-28T11:51:43;98528.72;;;22.52;44.87
65227;BME280;51805;49.012;12.104;2023-01-28T11:54:33;98526.56;;;22.54;44.67
65227;BME280;51805;49.012;12.104;2023-01-28T11:59:52;98518.97;;;22.56;44.82
65227;BME280;51805;49.012;12.104;2023-01-28T12:05:06;98513.28;;;22.53;44.78
65227;BME280;51805;49.012;12.104;2023-01-28T12:12:43;98512.47;;;22.52;44.99
65227;BME280;51805;49.012;12.104;2023-01-28T12:23:21;98519.50;;;22.53;45.52
65227;BME280;51805;49.012;12.104;2023-01-28T12:28:26;98506.22;;;22.52;46.32
65227;BME280;51805;49.012;12.104;2023-01-28T12:33:25;98507.06;;;22.52;46.65
65227;BME280;51805;49.012;12.104;2023-01-28T12:38:49;98516.28;;;22.56;46.77
65227;BME280;51805;49.012;12.104;2023-01-28T12:41:17;98508.13;;;22.56;47.03
65227;BME280;51805;49.012;12.104;2023-01-28T12:43:55;98485.34;;;22.42;46.88
65227;BME280;51805;49.012;12.104;2023-01-28T12:46:34;98514.13;;;22.58;47.22
65227;BME280;51805;49.012;12.104;2023-01-28T12:54:00;98517.13;;;22.62;47.07
65227;BME280;51805;49.012;12.104;2023-01-28T12:56:32;98509.53;;;22.59;47.09
65227;BME280;51805;49.012;12.104;2023-01-28T12:59:01;98508.72;;;22.63;47.02
65227;BME280;51805;49.012;12.104;2023-01-28T13:01:45;98517.13;;;22.62;47.00
65227;BME280;51805;49.012;12.104;2023-01-28T13:04:28;98509.81;;;22.67;47.04
65227;BME280;51805;49.012;12.104;2023-01-28T13:06:59;98516.31;;;22.66;47.10
65227;BME280;51805;49.012;12.104;2023-01-28T13:09:26;98518.50;;;22.69;47.13
65227;BME280;51805;49.012;12.104;2023-01-28T13:11:55;98514.69;;;22.70;47.22
65227;BME280;51805;49.012;12.104;2023-01-28T13:14:22;98526.88;;;22.68;47.01
65227;BME280;51805;49.012;12.104;2023-01-28T13:16:49;98517.41;;;22.70;46.74
65227;BME280;51805;49.012;12.104;2023-01-28T13:21:42;98527.19;;;22.71;46.64
65227;BME280;51805;49.012;12.104;2023-01-28T13:26:40;98524.72;;;22.70;46.53
65227;BME280;51805;49.012;12.104;2023-01-28T13:29:07;98522.28;;;22.68;46.63
65227;BME280;51805;49.012;12.104;2023-01-28T13:31:37;98520.94;;;22.71;46.45
65227;BME280;51805;49.012;12.104;2023-01-28T13:34:03;98522.81;;;22.70;46.28
65227;BME280;51805;49.012;12.104;2023-01-28T13:41:35;98521.75;;;22.71;46.22
65227;BME280;51805;49.012;12.104;2023-01-28T13:44:00;98534.22;;;22.72;46.08
65227;BME280;51805;49.012;12.104;2023-01-28T13:46:26;98531.78;;;22.71;46.03
65227;BME280;51805;49.012;12.104;2023-01-28T13:48:52;98535.31;;;22.71;45.98
65227;BME280;51805;49.012;12.104;2023-01-28T13:51:23;98536.91;;;22.72;45.91
65227;BME280;51805;49.012;12.104;2023-01-28T13:53:57;98546.13;;;22.71;45.82
65227;BME280;51805;49.012;12.104;2023-01-28T13:56:25;98540.97;;;22.75;45.74
65227;BME280;51805;49.012;12.104;2023-01-28T14:07:06;98554.81;;;22.68;45.71
65227;BME280;51805;49.012;12.104;2023-01-28T14:09:50;98559.69;;;22.71;45.46
65227;BME280;51805;49.012;12.104;2023-01-28T14:12:23;98562.94;;;22.73;45.38